Time;durP1;ratioP1;P1;durP2;ratioP2;P2;SDS_P1;SDS_P2;PMS_P1;PMS_P2;Temp;Humidity;BMP_temperature;BMP_pressure;BME280_temperature;BME280_humidity;BME280_pressure;Samples;Min_cycle;Max_cycle;Signal;HPM_P1;HPM_P2
2022/01/28 00:08:58;;;;;;;8.00;4.97;;;5.40;98.90;;;;;;20915736;28;20208;-72
2022/01/28 00:39:24;;;;;;;6.27;4.80;;;5.30;98.80;;;;;;20914929;28;20239;-71
2022/01/28 00:49:26;;;;;;;9.30;5.47;;;5.40;99.00;;;;;;20917710;28;20250;-67
2022/01/28 00:59:27;;;;;;;6.97;5.13;;;5.40;98.80;;;;;;20913929;28;20293;-65
2022/01/28 01:09:29;;;;;;;6.87;5.30;;;5.50;98.50;;;;;;20912615;28;20259;-72
2022/01/28 01:19:36;;;;;;;10.30;5.40;;;5.50;98.40;;;;;;20910983;28;20327;-72
2022/01/28 01:29:42;;;;;;;8.23;4.93;;;5.50;98.40;;;;;;20908587;28;20741;-71
2022/01/28 01:39:44;;;;;;;9.37;5.27;;;5.40;98.50;;;;;;20911173;28;20289;-67
2022/01/28 01:52:34;;;;;;;7.27;4.90;;;5.40;98.40;;;;;;21068055;28;20920;-73
2022/01/28 02:02:36;;;;;;;7.60;4.10;;;;;;;;;;21065678;28;20557;-72
2022/01/28 02:12:51;;;;;;;5.53;4.10;;;5.40;98.00;;;;;;21064133;28;20203;-70
2022/01/28 02:22:55;;;;;;;5.83;4.00;;;5.40;97.70;;;;;;21064788;28;20261;-70
2022/01/28 02:33:08;;;;;;;9.47;4.67;;;5.30;97.70;;;;;;21064862;28;20211;-73
2022/01/28 02:53:40;;;;;;;8.70;4.97;;;5.40;97.70;;;;;;21063590;28;20210;-73
2022/01/28 03:03:44;;;;;;;8.53;5.47;;;5.40;97.90;;;;;;21007964;28;20301;-73
2022/01/28 03:24:04;;;;;;;6.87;4.93;;;5.40;97.80;;;;;;20948571;28;20231;-66
2022/01/28 03:34:06;;;;;;;10.50;4.93;;;5.30;97.80;;;;;;20921815;28;20216;-66
2022/01/28 03:44:09;;;;;;;11.03;5.70;;;5.30;97.80;;;;;;20920444;28;20244;-63
2022/01/28 03:54:10;;;;;;;9.97;4.53;;;5.30;98.00;;;;;;20919907;28;20696;-64
2022/01/28 04:15:06;;;;;;;8.67;4.40;;;5.40;97.20;;;;;;20913984;28;20611;-64
2022/01/28 04:25:08;;;;;;;11.83;4.37;;;5.40;97.20;;;;;;20917307;28;20233;-63
2022/01/28 04:35:11;;;;;;;8.07;3.90;;;5.40;97.40;;;;;;20916247;28;20265;-64
2022/01/28 04:45:28;;;;;;;9.30;4.03;;;5.40;97.20;;;;;;20915220;28;20243;-66
2022/01/28 05:26:39;;;;;;;13.13;5.73;;;5.40;96.10;;;;;;20910452;28;20237;-63
2022/01/28 05:36:40;;;;;;;6.47;3.10;;;5.50;96.00;;;;;;20912285;28;20259;-66
2022/01/28 05:46:44;;;;;;;6.90;3.30;;;5.50;95.90;;;;;;20911671;28;20248;-65
2022/01/28 05:56:46;;;;;;;8.33;3.13;;;5.50;95.80;;;;;;20916333;28;20257;-66
2022/01/28 06:06:48;;;;;;;6.23;3.67;;;5.40;96.00;;;;;;20908931;28;20230;-64
2022/01/28 06:16:49;;;;;;;8.43;3.43;;;5.30;96.30;;;;;;20987906;28;20563;-73
2022/01/28 06:31:17;;;;;;;8.83;3.80;;;5.40;96.60;;;;;;21069546;28;20673;-71
2022/01/28 06:41:22;;;;;;;5.37;3.10;;;5.50;96.80;;;;;;21071395;28;20310;-69
2022/01/28 06:51:24;;;;;;;7.47;2.87;;;5.50;96.70;;;;;;21065162;28;20222;-71
2022/01/28 07:01:26;;;;;;;10.67;2.90;;;5.50;96.70;;;;;;21065008;28;20208;-65
2022/01/28 07:11:28;;;;;;;14.97;2.97;;;5.50;97.00;;;;;;21062103;28;20210;-67
2022/01/28 07:21:30;;;;;;;10.37;3.07;;;;;;;;;;21054988;28;20252;-65
2022/01/28 07:31:33;;;;;;;12.00;3.07;;;5.50;96.00;;;;;;21059037;28;20208;-64
2022/01/28 07:41:36;;;;;;;6.43;2.73;;;5.50;96.00;;;;;;21011505;28;20265;-66
2022/01/28 07:51:43;;;;;;;4.07;2.20;;;5.50;95.50;;;;;;21003998;28;20201;-66
2022/01/28 08:01:44;;;;;;;10.03;2.27;;;5.60;95.20;;;;;;21005922;28;20227;-63
2022/01/28 08:11:46;;;;;;;11.10;2.07;;;5.40;94.90;;;;;;20962967;28;20204;-72
2022/01/28 08:21:48;;;;;;;7.93;2.20;;;5.40;95.20;;;;;;20924141;28;20687;-73
2022/01/28 08:31:50;;;;;;;6.13;2.07;;;5.50;94.80;;;;;;21001419;28;20209;-63
2022/01/28 08:41:52;;;;;;;7.00;1.90;;;5.50;94.90;;;;;;21000338;28;20231;-64
2022/01/28 08:51:54;;;;;;;8.30;2.10;;;5.60;94.20;;;;;;20999160;28;20590;-63
2022/01/28 09:01:56;;;;;;;7.70;1.77;;;5.80;93.70;;;;;;20963918;28;20226;-64
2022/01/28 09:21:59;;;;;;;5.97;1.60;;;6.10;92.70;;;;;;20981406;28;20241;-62
2022/01/28 09:32:03;;;;;;;5.60;1.80;;;6.20;92.70;;;;;;20939952;28;20297;-64
2022/01/28 09:42:11;;;;;;;7.80;2.63;;;6.30;93.10;;;;;;20951878;28;20259;-70
2022/01/28 09:52:13;;;;;;;9.40;2.77;;;6.40;93.20;;;;;;20994974;28;20582;-61
2022/01/28 10:02:15;;;;;;;11.37;2.77;;;6.30;93.20;;;;;;20994080;28;20699;-64
2022/01/28 10:14:11;;;;;;;10.50;3.27;;;6.20;93.60;;;;;;21242738;27;20287;-65
2022/01/28 10:24:19;;;;;;;10.77;3.43;;;6.30;93.90;;;;;;21151396;28;20215;-66
2022/01/28 10:34:43;;;;;;;14.63;3.17;;;6.40;94.10;;;;;;21149497;28;20668;-65
2022/01/28 10:44:55;;;;;;;6.53;2.63;;;6.60;94.20;;;;;;21072732;28;20691;-62
2022/01/28 10:54:57;;;;;;;7.40;2.83;;;6.50;93.90;;;;;;21063110;28;20273;-65
2022/01/28 11:04:59;;;;;;;9.03;2.87;;;6.50;94.00;;;;;;21060927;28;20285;-67
2022/01/28 11:15:01;;;;;;;9.77;3.07;;;6.50;93.90;;;;;;21071037;28;20206;-65
2022/01/28 11:25:27;;;;;;;7.53;2.80;;;6.60;93.60;;;;;;21090014;28;20232;-64
2022/01/28 11:35:40;;;;;;;7.37;2.63;;;7.00;91.90;;;;;;21087930;28;20211;-63
2022/01/28 11:45:42;;;;;;;10.40;2.63;;;7.20;91.10;;;;;;21087248;28;20233;-62
2022/01/28 11:55:44;;;;;;;10.33;2.63;;;7.20;88.90;;;;;;21086939;28;20211;-65
2022/01/28 12:05:45;;;;;;;10.10;2.40;;;7.00;84.10;;;;;;21085687;28;20293;-66
2022/01/28 12:16:11;;;;;;;8.50;2.27;;;6.90;83.80;;;;;;21086350;28;20715;-65
2022/01/28 12:26:19;;;;;;;7.77;2.80;;;7.20;82.90;;;;;;21092172;28;20638;-64
2022/01/28 12:36:29;;;;;;;16.93;5.10;;;7.30;81.30;;;;;;21085559;28;20258;-63
2022/01/28 12:46:33;;;;;;;15.73;5.33;;;7.20;80.90;;;;;;21082330;28;20233;-65
2022/01/28 12:56:39;;;;;;;10.53;3.30;;;7.20;81.70;;;;;;21083286;28;20236;-65
2022/01/28 13:06:59;;;;;;;12.47;3.00;;;7.20;83.20;;;;;;21067587;28;20289;-66
2022/01/28 13:17:04;;;;;;;13.30;3.10;;;7.20;83.60;;;;;;21062896;28;20196;-66
2022/01/28 13:27:08;;;;;;;11.20;3.07;;;7.30;84.80;;;;;;21078208;28;20232;-64
2022/01/28 13:37:10;;;;;;;10.93;2.40;;;7.30;85.50;;;;;;21079290;28;20217;-65
2022/01/28 13:47:13;;;;;;;11.70;2.80;;;7.50;85.60;;;;;;21075788;28;20629;-65
2022/01/28 13:57:15;;;;;;;8.43;2.87;;;7.40;86.00;;;;;;21077318;28;20265;-65
2022/01/28 14:07:26;;;;;;;8.33;2.80;;;7.40;86.20;;;;;;21076799;28;20240;-66
2022/01/28 14:25:22;;;;;;;12.03;3.20;;;7.50;86.20;;;;;;21066871;27;20575;-63
2022/01/28 14:35:23;;;;;;;13.60;2.70;;;7.30;83.40;;;;;;21065924;28;20255;-64
2022/01/28 14:45:25;;;;;;;12.40;2.47;;;7.10;80.90;;;;;;21075855;28;20208;-64
2022/01/28 14:55:27;;;;;;;17.07;3.60;;;7.00;79.50;;;;;;21067441;28;20218;-66
2022/01/28 15:05:29;;;;;;;14.40;2.63;;;6.90;80.20;;;;;;21063947;28;20606;-65
2022/01/28 15:15:32;;;;;;;11.83;2.97;;;6.90;80.50;;;;;;21062433;28;20212;-64
2022/01/28 15:25:34;;;;;;;10.83;2.50;;;6.90;81.60;;;;;;21061571;28;20242;-72
2022/01/28 15:45:40;;;;;;;24.17;5.20;;;7.20;83.00;;;;;;21000540;28;20736;-65
2022/01/28 15:55:42;;;;;;;9.77;2.67;;;7.10;83.70;;;;;;21004731;28;20200;-64
2022/01/28 16:05:43;;;;;;;11.30;3.77;;;7.10;84.20;;;;;;21004532;28;20275;-63
2022/01/28 16:25:49;;;;;;;14.63;3.90;;;7.00;84.00;;;;;;20992525;28;20817;-63
2022/01/28 16:35:52;;;;;;;15.10;4.23;;;7.10;84.10;;;;;;20919309;28;20690;-63
2022/01/28 16:45:55;;;;;;;10.37;3.13;;;7.10;83.70;;;;;;20919019;28;20305;-65
2022/01/28 16:55:57;;;;;;;13.73;3.47;;;7.10;83.50;;;;;;20919326;28;20230;-73
2022/01/28 17:05:59;;;;;;;11.87;3.87;;;7.00;82.80;;;;;;20915610;28;20259;-67
2022/01/28 17:16:01;;;;;;;22.23;8.83;;;7.10;82.50;;;;;;20914768;28;20239;-64
2022/01/28 17:26:04;;;;;;;13.80;3.90;;;7.20;82.30;;;;;;20967550;28;20206;-63
2022/01/28 17:36:06;;;;;;;13.33;3.70;;;7.20;83.10;;;;;;20996913;28;20237;-65
2022/01/28 17:46:08;;;;;;;18.30;3.63;;;7.00;81.30;;;;;;20949366;28;20259;-64
2022/01/28 17:56:10;;;;;;;14.17;3.70;;;7.10;81.10;;;;;;20976734;28;20701;-62
2022/01/28 18:06:11;;;;;;;16.20;4.83;;;7.10;80.90;;;;;;20912731;28;20277;-65
2022/01/28 18:19:13;;;;;;;15.30;4.00;;;7.00;80.90;;;;;;21067439;28;20289;-62
2022/01/28 18:29:15;;;;;;;14.57;6.83;;;7.00;80.80;;;;;;21068515;28;20214;-63
2022/01/28 18:39:17;;;;;;;16.67;4.73;;;7.00;80.90;;;;;;21073208;28;20301;-64
2022/01/28 18:49:19;;;;;;;17.10;3.80;;;6.90;81.00;;;;;;21028898;28;20205;-63
2022/01/28 18:59:21;;;;;;;18.33;6.23;;;6.90;81.20;;;;;;20979408;28;20338;-62
2022/01/28 19:09:23;;;;;;;17.97;4.97;;;7.00;81.90;;;;;;20981536;28;20202;-63
2022/01/28 19:19:25;;;;;;;11.80;4.77;;;6.90;81.30;;;;;;21062680;28;20207;-61
2022/01/28 19:29:27;;;;;;;14.03;4.10;;;6.90;81.50;;;;;;21010444;28;20216;-63
2022/01/28 19:39:29;;;;;;;12.67;3.83;;;6.80;82.10;;;;;;21006707;28;20205;-63
2022/01/28 19:49:31;;;;;;;17.63;4.57;;;6.80;82.50;;;;;;21004007;28;20203;-65
2022/01/28 19:59:33;;;;;;;20.37;5.83;;;6.90;82.10;;;;;;20984561;28;20208;-63
2022/01/28 20:09:35;;;;;;;17.77;5.20;;;6.90;82.90;;;;;;20998906;28;20241;-62
2022/01/28 20:19:36;;;;;;;14.27;5.10;;;6.90;82.30;;;;;;20996248;28;20213;-63
2022/01/28 20:31:13;;;;;;;15.13;5.47;;;6.80;82.70;;;;;;20987427;28;20670;-62
2022/01/28 20:41:17;;;;;;;17.73;4.40;;;6.80;83.10;;;;;;20983652;28;20711;-64
2022/01/28 20:51:18;;;;;;;13.00;4.67;;;6.80;83.20;;;;;;20976361;28;20201;-62
2022/01/28 21:01:20;;;;;;;8.37;3.77;;;6.80;83.40;;;;;;20974058;28;20261;-62
2022/01/28 21:11:23;;;;;;;13.60;4.10;;;6.70;84.30;;;;;;20972480;28;20669;-62
2022/01/28 21:21:25;;;;;;;14.90;5.03;;;6.70;85.70;;;;;;20967019;28;20205;-63
2022/01/28 21:31:30;;;;;;;15.80;6.20;;;6.60;86.30;;;;;;20887275;28;20229;-66
2022/01/28 21:41:33;;;;;;;15.50;7.77;;;6.60;87.60;;;;;;20839811;28;20214;-63
2022/01/28 21:51:34;;;;;;;18.97;8.90;;;6.50;89.40;;;;;;20886680;28;20210;-63
2022/01/28 22:01:37;;;;;;;15.67;9.40;;;6.30;90.30;;;;;;20913891;28;20274;-61
2022/01/28 22:11:40;;;;;;;17.93;10.90;;;6.20;90.50;;;;;;20913356;28;20299;-62
2022/01/28 22:21:41;;;;;;;21.33;11.47;;;6.20;91.30;;;;;;20912831;28;20301;-61
2022/01/28 22:31:46;;;;;;;18.17;11.37;;;6.10;91.70;;;;;;20918530;28;20201;-62
2022/01/28 22:41:47;;;;;;;24.90;12.40;;;6.20;92.00;;;;;;20919166;28;20320;-63
2022/01/28 22:51:49;;;;;;;19.80;12.27;;;6.20;92.20;;;;;;20917644;28;20280;-63
2022/01/28 23:01:51;;;;;;;21.27;12.47;;;6.20;92.50;;;;;;20917517;28;20224;-62
2022/01/28 23:11:54;;;;;;;17.10;11.60;;;6.30;92.70;;;;;;20916886;28;20210;-63
2022/01/28 23:21:56;;;;;;;23.57;13.87;;;6.30;93.00;;;;;;20913613;28;20259;-62
2022/01/28 23:31:58;;;;;;;26.00;13.63;;;6.30;92.90;;;;;;20829992;28;20719;-63
2022/01/28 23:41:59;;;;;;;24.23;13.83;;;6.30;93.00;;;;;;20832076;28;20312;-62
2022/01/28 23:59:05;;;;;;;24.07;14.57;;;6.20;93.50;;;;;;20984496;28;20567;-64
